Ruby Princess — ZCDY2 — position and weather

sailwx.info

Track history (hours):
 
Tides and Currents Weather Stations Pressure Air Temp Water Temp Dewpoint Dewpoint Depression Visibility Wind Speed Wind Dir Waves Ship Positions

Ruby Princess

Last reported at 2018-May-20 20:00 UTC. Time now 2018-May-20 21:22 UTC.
Position N 51°30' W 130°48'.

Length 289 m; draft 8.7 m.

Type: Ship. MMSI: 310567000.

Wind from 180 at 24 knots

Barometer 1016.5 mb
Air temperature 11.0 ° C
Visibility: greater than 10.8 NM
Dewpoint 9.0 ° C
Water temperature 10.0 ° C

Date/timePositionNaut miles runAvg speedWind from/ knotsBaromVisibWave heightAir tempDewpointWater temp
2018-May-20 20:00N 51°30' W 130°48'8519.2 180 / 241016.510.8 11.0 9.010.0
2018-May-20 15:33N 50°32' W 129°09'122.3
2018-May-20 15:31N 50°31' W 129°07'1630.4
2018-May-20 15:00N 50°18' W 128°54'422.2 210 / 181017.010.8 10.5 6.211.0
2018-May-20 14:49N 50°21' W 128°49'722.5
2018-May-20 14:30N 50°16' W 128°41'1122.5
2018-May-20 14:00N 50°08' W 128°28'1622.3
2018-May-20 13:17N 49°58' W 128°10'6221.9
2018-May-20 10:28N 49°18' W 126°56'1122.1
2018-May-20 09:59N 49°12' W 126°43'1122.1
2018-May-20 09:30N 49°06' W 126°30'1122.2
2018-May-20 09:00N 48°59' W 126°16'1121.9
2018-May-20 08:30N 48°53' W 126°03'1121.1
2018-May-20 08:00N 48°47' W 125°50'1122.1
2018-May-20 07:30N 48°41' W 125°35'1122.3
2018-May-20 07:00N 48°36' W 125°20'1122.3
2018-May-20 06:30N 48°32' W 125°04'1123.3
2018-May-20 06:01N 48°32' W 124°47'1122.6
2018-May-20 05:31N 48°28' W 124°31'1020.7
2018-May-20 05:01N 48°24' W 124°17'1020.2
2018-May-20 04:31N 48°20' W 124°03'1019.7
2018-May-20 04:00N 48°17' W 123°48'1019.6
2018-May-20 03:29N 48°16' W 123°34'918.3
2018-May-20 03:00N 48°11' W 123°22'712.2
2018-May-20 02:27N 48°11' W 123°12'818.6
2018-May-20 01:59N 48°12' W 122°59'918.6
2018-May-20 01:30N 48°11' W 122°46'1316.3
2018-May-20 00:44N 47°60' W 122°36'417.8
2018-May-20 00:31N 47°57' W 122°32'1019.4
2018-May-20 00:01N 47°48' W 122°26'918.0
2018-May-19 23:30N 47°39' W 122°27'3 5.8
2018-May-19 22:59N 47°38' W 122°23'0 0.0
2018-May-19 22:28N 47°38' W 122°23'0 0.0
2018-May-19 21:58N 47°38' W 122°23'0 0.0
2018-May-19 21:28N 47°38' W 122°23'0 0.0
2018-May-19 20:58N 47°38' W 122°23'0 0.0
2018-May-19 20:28N 47°38' W 122°23'0 0.0
2018-May-19 20:00N 47°38' W 122°23'0 0.0
2018-May-19 19:30N 47°38' W 122°23'0 0.0
2018-May-19 19:00N 47°38' W 122°23'0 0.0
2018-May-19 18:27N 47°38' W 122°23'0 0.0
2018-May-19 17:59N 47°38' W 122°23'0 0.0
2018-May-19 17:29N 47°38' W 122°23'0 0.0
2018-May-19 16:59N 47°38' W 122°23'0 0.0
2018-May-19 16:29N 47°38' W 122°23'0 0.0
2018-May-19 15:59N 47°38' W 122°23'0 0.0
2018-May-19 15:25N 47°38' W 122°23'0 0.0
2018-May-19 14:55N 47°38' W 122°23'0 0.0
2018-May-19 14:28N 47°38' W 122°23'0 0.0
2018-May-19 13:58N 47°38' W 122°23'0 0.0
2018-May-19 13:30N 47°38' W 122°23'0 0.0
2018-May-19 13:00N 47°38' W 122°23'2 3.2
2018-May-19 12:30N 47°37' W 122°25'611.5
2018-May-19 12:00N 47°43' W 122°28'713.5
2018-May-19 11:30N 47°49' W 122°28'713.3
2018-May-19 11:00N 47°56' W 122°31'913.5
2018-May-19 10:21N 48°03' W 122°39'714.3
2018-May-19 09:51N 48°09' W 122°44'615.4
2018-May-19 09:30N 48°11' W 122°52'816.4
2018-May-19 09:00N 48°12' W 123°04'815.9
2018-May-19 08:30N 48°11' W 123°16'12 8.8
2018-May-19 07:05N 48°22' W 123°25'115.1
2018-May-19 07:00N 48°23' W 123°25'2 4.3
2018-May-19 06:30N 48°25' W 123°24'0 0.0
2018-May-19 05:57N 48°25' W 123°24'0 0.0
2018-May-19 05:30N 48°25' W 123°24'0 0.0
2018-May-19 04:54N 48°25' W 123°24'0 0.0
2018-May-19 04:23N 48°25' W 123°24'0 0.0
2018-May-19 03:59N 48°25' W 123°24'0 0.0
2018-May-19 03:29N 48°25' W 123°24'0 0.0
2018-May-19 02:59N 48°25' W 123°24'0 0.0
2018-May-19 02:29N 48°25' W 123°24'0 0.0
2018-May-19 01:58N 48°25' W 123°24'0 0.0
2018-May-19 01:28N 48°25' W 123°24'0 0.8
2018-May-19 01:00N 48°25' W 123°24'611.0
2018-May-19 00:30N 48°19' W 123°25'917.7
2018-May-19 00:01N 48°13' W 123°34'1222.3
2018-May-18 23:29N 48°14' W 123°52'1021.8
2018-May-18 23:00N 48°17' W 124°06'1121.4
2018-May-18 22:30N 48°21' W 124°21'1020.6
2018-May-18 22:00N 48°26' W 124°35'1020.2
2018-May-18 21:30N 48°29' W 124°50'1020.7
2018-May-18 21:01N 48°29' W 125°05'1020.3
2018-May-18 20:31N 48°32' W 125°19'1121.0
2018-May-18 20:01N 48°38' W 125°33'1020.5
2018-May-18 19:30N 48°43' W 125°46'1020.2
2018-May-18 19:00N 48°48' W 125°59'1020.8
2018-May-18 18:31N 48°54' W 126°12'1121.2
2018-May-18 18:00N 49°01' W 126°25'1121.6
2018-May-18 17:30N 49°07' W 126°38'1121.8
2018-May-18 17:00N 49°14' W 126°51'1122.2
2018-May-18 16:30N 49°21' W 127°05'5022.4
2018-May-18 14:17N 49°53' W 128°04'621.8
2018-May-18 14:00N 49°57' W 128°11'1122.1
2018-May-18 13:29N 50°06' W 128°22'1122.5
2018-May-18 13:00N 50°14' W 128°32'1122.3
2018-May-18 12:30N 50°23' W 128°43'1122.0
2018-May-18 12:01N 50°32' W 128°53'1122.7
2018-May-18 11:30N 50°41' W 129°04'1122.7
2018-May-18 11:01N 50°50' W 129°14'1122.0
2018-May-18 10:30N 51°01' W 129°21'1121.8
2018-May-18 10:00N 51°10' W 129°27'1122.1
2018-May-18 09:31N 51°21' W 129°34'1122.4
2018-May-18 09:00N 51°31' W 129°41'1121.7
2018-May-18 08:30N 51°41' W 129°48'1121.6
2018-May-18 08:01N 51°51' W 129°55'1121.9
2018-May-18 07:31N 52°01' W 130°02'1121.5
2018-May-18 07:01N 52°11' W 130°08'1121.6
2018-May-18 06:30N 52°21' W 130°15'1121.7
2018-May-18 06:00N 52°31' W 130°22'1121.8
2018-May-18 05:30N 52°41' W 130°29'1121.8
2018-May-18 05:00N 52°51' W 130°37'1122.2
2018-May-18 04:30N 53°01' W 130°44'1122.3
2018-May-18 04:00N 53°11' W 130°51'1122.4
2018-May-18 03:31N 53°21' W 130°58'1122.5
2018-May-18 03:00N 53°33' W 131°01'1122.6
2018-May-18 02:30N 53°44' W 131°01'1222.5
2018-May-18 02:00N 53°55' W 131°02'1122.3
2018-May-18 01:30N 54°06' W 131°02'1122.6
2018-May-18 01:00N 54°18' W 131°02'1121.3
2018-May-18 00:30N 54°27' W 131°12'1122.5
2018-May-18 00:00N 54°36' W 131°23'1623.0
2018-May-17 23:17N 54°50' W 131°39'23710.4
2018-May-17 00:25N 58°12' W 135°25'820.6
2018-May-17 00:00N 58°16' W 135°39'1019.3
2018-May-16 23:30N 58°20' W 135°56'713.6
2018-May-16 23:01N 58°26' W 135°59'510.1
2018-May-16 22:30N 58°31' W 136°04'713.2
2018-May-16 22:00N 58°37' W 136°05'715.0
2018-May-16 21:30N 58°43' W 136°14'10 1.7
2018-May-16 15:43N 58°49' W 136°29'517.8
2018-May-16 15:25N 58°46' W 136°21'818.5
2018-May-16 15:00N 58°41' W 136°11'917.6
2018-May-16 14:30N 58°33' W 136°04'714.1
2018-May-16 14:00N 58°26' W 135°58'611.1
2018-May-16 13:31N 58°21' W 135°57'611.5
2018-May-16 12:59N 58°18' W 135°46'613.0
2018-May-16 12:31N 58°16' W 135°35'124 2.5
2018-May-14 11:00N 56°18' W 134°24'26620.7 180 / 151019.010.8 11.5 8.510.0
2018-May-13 22:10N 52°08' W 131°48'422.1
2018-May-13 21:58N 52°05' W 131°43'1021.7
2018-May-13 21:30N 51°57' W 131°32'1121.9
2018-May-13 20:59N 51°49' W 131°20'1121.6
2018-May-13 20:30N 51°41' W 131°08'1222.2
2018-May-13 19:57N 51°33' W 130°54'1022.4
2018-May-13 19:30N 51°26' W 130°42'1121.7
2018-May-13 19:00N 51°18' W 130°30'622.0 050 / 271019.310.8 11.5 8.510.0
2018-May-13 18:43N 51°15' W 130°22'821.6
2018-May-13 18:20N 51°09' W 130°12'1021.6
2018-May-13 17:53N 51°02' W 130°01'921.5
2018-May-13 17:29N 50°57' W 129°51'1021.3
2018-May-13 16:59N 50°49' W 129°39'1520.9
2018-May-13 16:16N 50°39' W 129°21'520.5
2018-May-13 16:00N 50°36' W 129°15'1320.2
2018-May-13 15:22N 50°27' W 128°60'720.1
2018-May-13 15:01N 50°22' W 128°51'5270.6
2018-May-13 15:00N 50°18' W 128°48'612.5 010 / 321018.0 5.4 10.8 9.610.0
2018-May-13 14:30N 50°15' W 128°40'1120.3
2018-May-13 13:59N 50°08' W 128°27'1620.2
2018-May-13 13:10N 49°57' W 128°09'4620.1
2018-May-13 10:53N 49°28' W 127°14'820.7
2018-May-13 10:30N 49°23' W 127°04'1020.5
2018-May-13 10:00N 49°16' W 126°52'6569.3
2018-May-13 10:00N 49°18' W 127°00'1631.7 350 / 301014.910.8 13.011.1 7.0
2018-May-13 09:30N 49°10' W 126°40'1020.5
2018-May-13 09:00N 49°04' W 126°27'1020.5
2018-May-13 08:30N 48°58' W 126°14'1020.5
2018-May-13 08:00N 48°52' W 126°02'1020.8
2018-May-13 07:30N 48°46' W 125°49'1020.8
2018-May-13 07:00N 48°41' W 125°35'1020.8
2018-May-13 06:30N 48°36' W 125°21'1021.0
2018-May-13 06:00N 48°32' W 125°07'1120.9
2018-May-13 05:30N 48°32' W 124°51'1021.1
2018-May-13 05:00N 48°28' W 124°36'1121.5
2018-May-13 04:30N 48°25' W 124°21'1122.0
2018-May-13 04:00N 48°20' W 124°06'1121.9
2018-May-13 03:29N 48°17' W 123°49'1821.4
2018-May-13 02:39N 48°11' W 123°24'214.7
2018-May-13 02:29N 48°09' W 123°22'918.5
2018-May-13 01:59N 48°12' W 123°09'1121.8
2018-May-13 01:30N 48°12' W 122°53'1121.7
2018-May-13 00:59N 48°06' W 122°39'1021.7
2018-May-13 00:30N 47°57' W 122°32'1021.0
2018-May-13 00:00N 47°47' W 122°26'918.5
2018-May-12 23:30N 47°38' W 122°26'2 4.2
2018-May-12 23:00N 47°38' W 122°23'0 0.0
2018-May-12 22:30N 47°38' W 122°23'0 0.0
2018-May-12 21:59N 47°38' W 122°23'0 0.0
2018-May-12 21:23N 47°38' W 122°23'0 0.0
2018-May-12 20:56N 47°38' W 122°23'0 0.0
2018-May-12 20:29N 47°38' W 122°23'0 0.0
2018-May-12 19:56N 47°38' W 122°23'0 0.0
2018-May-12 19:25N 47°38' W 122°23'0 0.0
2018-May-12 18:55N 47°38' W 122°23'0 0.0
2018-May-12 18:25N 47°38' W 122°23'0 0.0
2018-May-12 17:58N 47°38' W 122°23'0 0.0
2018-May-12 17:31N 47°38' W 122°23'0 0.0
2018-May-12 17:00N 47°38' W 122°23'0 0.0
2018-May-12 16:30N 47°38' W 122°23'0 0.0
2018-May-12 16:00N 47°38' W 122°23'0 0.0
2018-May-12 15:30N 47°38' W 122°23'0 0.0
2018-May-12 14:59N 47°38' W 122°23'0 0.0
2018-May-12 14:29N 47°38' W 122°23'0 0.0
2018-May-12 13:59N 47°38' W 122°23'0 0.0
2018-May-12 13:29N 47°38' W 122°23'0 0.9
2018-May-12 13:00N 47°37' W 122°23'2 4.7
2018-May-12 12:31N 47°37' W 122°26'611.5
2018-May-12 12:00N 47°42' W 122°28'714.4
2018-May-12 11:31N 47°50' W 122°28'714.0
2018-May-12 11:01N 47°56' W 122°32'713.9
2018-May-12 10:30N 48°02' W 122°38'813.5
2018-May-12 09:56N 48°08' W 122°43'615.1
2018-May-12 09:30N 48°11' W 122°52'816.2
2018-May-12 09:00N 48°12' W 123°05'917.2
2018-May-12 08:30N 48°11' W 123°18'1011.6
2018-May-12 07:40N 48°16' W 123°29'418.1
2018-May-12 07:25N 48°20' W 123°26'5 0.8
2018-May-12 01:28N 48°25' W 123°24'611.4
2018-May-12 00:59N 48°19' W 123°25'1317.5
2018-May-12 00:13N 48°14' W 123°43'520.1
2018-May-11 23:58N 48°14' W 123°50'919.6
2018-May-11 23:30N 48°16' W 124°03'1020.9
2018-May-11 23:00N 48°20' W 124°18'1021.0
2018-May-11 22:30N 48°25' W 124°32'1020.4
2018-May-11 22:00N 48°29' W 124°46'1121.2
2018-May-11 21:28N 48°29' W 125°04'816.6
2018-May-11 21:00N 48°31' W 125°15'1020.9
2018-May-11 20:30N 48°36' W 125°28'1121.6
2018-May-11 20:00N 48°41' W 125°42'1020.8
2018-May-11 19:30N 48°47' W 125°56'1020.5
2018-May-11 19:00N 48°53' W 126°09'1021.0
2018-May-11 18:30N 48°59' W 126°21'1121.2
2018-May-11 17:59N 49°06' W 126°35'1121.4
2018-May-11 17:29N 49°12' W 126°48'1021.5
2018-May-11 17:00N 49°19' W 127°00'10322.1
2018-May-11 12:20N 50°31' W 128°53'4221.7
2018-May-11 10:24N 51°08' W 129°26'922.0
2018-May-11 10:00N 51°16' W 129°31'1121.9
2018-May-11 09:30N 51°26' W 129°38'12921.9
2018-May-11 03:35N 53°25' W 131°01'221.3
2018-May-11 03:29N 53°28' W 131°01'1021.0
2018-May-11 03:00N 53°38' W 131°01'1221.4
2018-May-11 02:28N 53°49' W 131°02'1021.7
2018-May-11 02:00N 53°59' W 131°02'1121.8
2018-May-11 01:30N 54°10' W 131°02'1121.3
2018-May-11 01:00N 54°21' W 131°04'1221.8
2018-May-11 00:28N 54°30' W 131°16'1121.4
2018-May-10 23:58N 54°39' W 131°27'  
Track history (hours):
 
Tides and Currents Weather Stations Pressure Air Temp Water Temp Dewpoint Dewpoint Depression Visibility Wind Speed Wind Dir Waves Ship Positions

Ruby Princess

Last reported at 2018-May-20 20:00 UTC. Time now 2018-May-20 21:22 UTC.
Position N 51°30' W 130°48'.

Length 289 m; draft 8.7 m.

Type: Ship. MMSI: 310567000.

Wind from 180 at 24 knots

Barometer 1016.5 mb
Air temperature 11.0 ° C
Visibility: greater than 10.8 NM
Dewpoint 9.0 ° C
Water temperature 10.0 ° C

Date/timePositionNaut miles runAvg speedWind from/ knotsBaromVisibWave heightAir tempDewpointWater temp
2018-May-20 20:00N 51°30' W 130°48'8519.2 180 / 241016.510.8 11.0 9.010.0
2018-May-20 15:33N 50°32' W 129°09'122.3
2018-May-20 15:31N 50°31' W 129°07'1630.4
2018-May-20 15:00N 50°18' W 128°54'422.2 210 / 181017.010.8 10.5 6.211.0
2018-May-20 14:49N 50°21' W 128°49'722.5
2018-May-20 14:30N 50°16' W 128°41'1122.5
2018-May-20 14:00N 50°08' W 128°28'1622.3
2018-May-20 13:17N 49°58' W 128°10'6221.9
2018-May-20 10:28N 49°18' W 126°56'1122.1
2018-May-20 09:59N 49°12' W 126°43'1122.1
2018-May-20 09:30N 49°06' W 126°30'1122.2
2018-May-20 09:00N 48°59' W 126°16'1121.9
2018-May-20 08:30N 48°53' W 126°03'1121.1
2018-May-20 08:00N 48°47' W 125°50'1122.1
2018-May-20 07:30N 48°41' W 125°35'1122.3
2018-May-20 07:00N 48°36' W 125°20'1122.3
2018-May-20 06:30N 48°32' W 125°04'1123.3
2018-May-20 06:01N 48°32' W 124°47'1122.6
2018-May-20 05:31N 48°28' W 124°31'1020.7
2018-May-20 05:01N 48°24' W 124°17'1020.2
2018-May-20 04:31N 48°20' W 124°03'1019.7
2018-May-20 04:00N 48°17' W 123°48'1019.6
2018-May-20 03:29N 48°16' W 123°34'918.3
2018-May-20 03:00N 48°11' W 123°22'712.2
2018-May-20 02:27N 48°11' W 123°12'818.6
2018-May-20 01:59N 48°12' W 122°59'918.6
2018-May-20 01:30N 48°11' W 122°46'1316.3
2018-May-20 00:44N 47°60' W 122°36'417.8
2018-May-20 00:31N 47°57' W 122°32'1019.4
2018-May-20 00:01N 47°48' W 122°26'918.0
2018-May-19 23:30N 47°39' W 122°27'3 5.8
2018-May-19 22:59N 47°38' W 122°23'0 0.0
2018-May-19 22:28N 47°38' W 122°23'0 0.0
2018-May-19 21:58N 47°38' W 122°23'0 0.0
2018-May-19 21:28N 47°38' W 122°23'0 0.0
2018-May-19 20:58N 47°38' W 122°23'0 0.0
2018-May-19 20:28N 47°38' W 122°23'0 0.0
2018-May-19 20:00N 47°38' W 122°23'0 0.0
2018-May-19 19:30N 47°38' W 122°23'0 0.0
2018-May-19 19:00N 47°38' W 122°23'0 0.0
2018-May-19 18:27N 47°38' W 122°23'0 0.0
2018-May-19 17:59N 47°38' W 122°23'0 0.0
2018-May-19 17:29N 47°38' W 122°23'0 0.0
2018-May-19 16:59N 47°38' W 122°23'0 0.0
2018-May-19 16:29N 47°38' W 122°23'0 0.0
2018-May-19 15:59N 47°38' W 122°23'0 0.0
2018-May-19 15:25N 47°38' W 122°23'0 0.0
2018-May-19 14:55N 47°38' W 122°23'0 0.0
2018-May-19 14:28N 47°38' W 122°23'0 0.0
2018-May-19 13:58N 47°38' W 122°23'0 0.0
2018-May-19 13:30N 47°38' W 122°23'0 0.0
2018-May-19 13:00N 47°38' W 122°23'2 3.2
2018-May-19 12:30N 47°37' W 122°25'611.5
2018-May-19 12:00N 47°43' W 122°28'713.5
2018-May-19 11:30N 47°49' W 122°28'713.3
2018-May-19 11:00N 47°56' W 122°31'913.5
2018-May-19 10:21N 48°03' W 122°39'714.3
2018-May-19 09:51N 48°09' W 122°44'615.4
2018-May-19 09:30N 48°11' W 122°52'816.4
2018-May-19 09:00N 48°12' W 123°04'815.9
2018-May-19 08:30N 48°11' W 123°16'12 8.8
2018-May-19 07:05N 48°22' W 123°25'115.1
2018-May-19 07:00N 48°23' W 123°25'2 4.3
2018-May-19 06:30N 48°25' W 123°24'0 0.0
2018-May-19 05:57N 48°25' W 123°24'0 0.0
2018-May-19 05:30N 48°25' W 123°24'0 0.0
2018-May-19 04:54N 48°25' W 123°24'0 0.0
2018-May-19 04:23N 48°25' W 123°24'0 0.0
2018-May-19 03:59N 48°25' W 123°24'0 0.0
2018-May-19 03:29N 48°25' W 123°24'0 0.0
2018-May-19 02:59N 48°25' W 123°24'0 0.0
2018-May-19 02:29N 48°25' W 123°24'0 0.0
2018-May-19 01:58N 48°25' W 123°24'0 0.0
2018-May-19 01:28N 48°25' W 123°24'0 0.8
2018-May-19 01:00N 48°25' W 123°24'611.0
2018-May-19 00:30N 48°19' W 123°25'917.7
2018-May-19 00:01N 48°13' W 123°34'1222.3
2018-May-18 23:29N 48°14' W 123°52'1021.8
2018-May-18 23:00N 48°17' W 124°06'1121.4
2018-May-18 22:30N 48°21' W 124°21'1020.6
2018-May-18 22:00N 48°26' W 124°35'1020.2
2018-May-18 21:30N 48°29' W 124°50'1020.7
2018-May-18 21:01N 48°29' W 125°05'1020.3
2018-May-18 20:31N 48°32' W 125°19'1121.0
2018-May-18 20:01N 48°38' W 125°33'1020.5
2018-May-18 19:30N 48°43' W 125°46'1020.2
2018-May-18 19:00N 48°48' W 125°59'1020.8
2018-May-18 18:31N 48°54' W 126°12'1121.2
2018-May-18 18:00N 49°01' W 126°25'1121.6
2018-May-18 17:30N 49°07' W 126°38'1121.8
2018-May-18 17:00N 49°14' W 126°51'1122.2
2018-May-18 16:30N 49°21' W 127°05'5022.4
2018-May-18 14:17N 49°53' W 128°04'621.8
2018-May-18 14:00N 49°57' W 128°11'1122.1
2018-May-18 13:29N 50°06' W 128°22'1122.5
2018-May-18 13:00N 50°14' W 128°32'1122.3
2018-May-18 12:30N 50°23' W 128°43'1122.0
2018-May-18 12:01N 50°32' W 128°53'1122.7
2018-May-18 11:30N 50°41' W 129°04'1122.7
2018-May-18 11:01N 50°50' W 129°14'1122.0
2018-May-18 10:30N 51°01' W 129°21'1121.8
2018-May-18 10:00N 51°10' W 129°27'1122.1
2018-May-18 09:31N 51°21' W 129°34'1122.4
2018-May-18 09:00N 51°31' W 129°41'1121.7
2018-May-18 08:30N 51°41' W 129°48'1121.6
2018-May-18 08:01N 51°51' W 129°55'1121.9
2018-May-18 07:31N 52°01' W 130°02'1121.5
2018-May-18 07:01N 52°11' W 130°08'1121.6
2018-May-18 06:30N 52°21' W 130°15'1121.7
2018-May-18 06:00N 52°31' W 130°22'1121.8
2018-May-18 05:30N 52°41' W 130°29'1121.8
2018-May-18 05:00N 52°51' W 130°37'1122.2
2018-May-18 04:30N 53°01' W 130°44'1122.3
2018-May-18 04:00N 53°11' W 130°51'1122.4
2018-May-18 03:31N 53°21' W 130°58'1122.5
2018-May-18 03:00N 53°33' W 131°01'1122.6
2018-May-18 02:30N 53°44' W 131°01'1222.5
2018-May-18 02:00N 53°55' W 131°02'1122.3
2018-May-18 01:30N 54°06' W 131°02'1122.6
2018-May-18 01:00N 54°18' W 131°02'1121.3
2018-May-18 00:30N 54°27' W 131°12'1122.5
2018-May-18 00:00N 54°36' W 131°23'1623.0
2018-May-17 23:17N 54°50' W 131°39'23710.4
2018-May-17 00:25N 58°12' W 135°25'820.6
2018-May-17 00:00N 58°16' W 135°39'1019.3
2018-May-16 23:30N 58°20' W 135°56'713.6
2018-May-16 23:01N 58°26' W 135°59'510.1
2018-May-16 22:30N 58°31' W 136°04'713.2
2018-May-16 22:00N 58°37' W 136°05'715.0
2018-May-16 21:30N 58°43' W 136°14'10 1.7
2018-May-16 15:43N 58°49' W 136°29'517.8
2018-May-16 15:25N 58°46' W 136°21'818.5
2018-May-16 15:00N 58°41' W 136°11'917.6
2018-May-16 14:30N 58°33' W 136°04'714.1
2018-May-16 14:00N 58°26' W 135°58'611.1
2018-May-16 13:31N 58°21' W 135°57'611.5
2018-May-16 12:59N 58°18' W 135°46'613.0
2018-May-16 12:31N 58°16' W 135°35'124 2.5
2018-May-14 11:00N 56°18' W 134°24'26620.7 180 / 151019.010.8 11.5 8.510.0
2018-May-13 22:10N 52°08' W 131°48'422.1
2018-May-13 21:58N 52°05' W 131°43'1021.7
2018-May-13 21:30N 51°57' W 131°32'1121.9
2018-May-13 20:59N 51°49' W 131°20'1121.6
2018-May-13 20:30N 51°41' W 131°08'1222.2
2018-May-13 19:57N 51°33' W 130°54'1022.4
2018-May-13 19:30N 51°26' W 130°42'1121.7
2018-May-13 19:00N 51°18' W 130°30'622.0 050 / 271019.310.8 11.5 8.510.0
2018-May-13 18:43N 51°15' W 130°22'821.6
2018-May-13 18:20N 51°09' W 130°12'1021.6
2018-May-13 17:53N 51°02' W 130°01'921.5
2018-May-13 17:29N 50°57' W 129°51'1021.3
2018-May-13 16:59N 50°49' W 129°39'1520.9
2018-May-13 16:16N 50°39' W 129°21'520.5
2018-May-13 16:00N 50°36' W 129°15'1320.2
2018-May-13 15:22N 50°27' W 128°60'720.1
2018-May-13 15:01N 50°22' W 128°51'5270.6
2018-May-13 15:00N 50°18' W 128°48'612.5 010 / 321018.0 5.4 10.8 9.610.0
2018-May-13 14:30N 50°15' W 128°40'1120.3
2018-May-13 13:59N 50°08' W 128°27'1620.2
2018-May-13 13:10N 49°57' W 128°09'4620.1
2018-May-13 10:53N 49°28' W 127°14'820.7
2018-May-13 10:30N 49°23' W 127°04'1020.5
2018-May-13 10:00N 49°16' W 126°52'6569.3
2018-May-13 10:00N 49°18' W 127°00'1631.7 350 / 301014.910.8 13.011.1 7.0
2018-May-13 09:30N 49°10' W 126°40'1020.5
2018-May-13 09:00N 49°04' W 126°27'1020.5
2018-May-13 08:30N 48°58' W 126°14'1020.5
2018-May-13 08:00N 48°52' W 126°02'1020.8
2018-May-13 07:30N 48°46' W 125°49'1020.8
2018-May-13 07:00N 48°41' W 125°35'1020.8
2018-May-13 06:30N 48°36' W 125°21'1021.0
2018-May-13 06:00N 48°32' W 125°07'1120.9
2018-May-13 05:30N 48°32' W 124°51'1021.1
2018-May-13 05:00N 48°28' W 124°36'1121.5
2018-May-13 04:30N 48°25' W 124°21'1122.0
2018-May-13 04:00N 48°20' W 124°06'1121.9
2018-May-13 03:29N 48°17' W 123°49'1821.4
2018-May-13 02:39N 48°11' W 123°24'214.7
2018-May-13 02:29N 48°09' W 123°22'918.5
2018-May-13 01:59N 48°12' W 123°09'1121.8
2018-May-13 01:30N 48°12' W 122°53'1121.7
2018-May-13 00:59N 48°06' W 122°39'1021.7
2018-May-13 00:30N 47°57' W 122°32'1021.0
2018-May-13 00:00N 47°47' W 122°26'918.5
2018-May-12 23:30N 47°38' W 122°26'2 4.2
2018-May-12 23:00N 47°38' W 122°23'0 0.0
2018-May-12 22:30N 47°38' W 122°23'0 0.0
2018-May-12 21:59N 47°38' W 122°23'0 0.0
2018-May-12 21:23N 47°38' W 122°23'0 0.0
2018-May-12 20:56N 47°38' W 122°23'0 0.0
2018-May-12 20:29N 47°38' W 122°23'0 0.0
2018-May-12 19:56N 47°38' W 122°23'0 0.0
2018-May-12 19:25N 47°38' W 122°23'0 0.0
2018-May-12 18:55N 47°38' W 122°23'0 0.0
2018-May-12 18:25N 47°38' W 122°23'0 0.0
2018-May-12 17:58N 47°38' W 122°23'0 0.0
2018-May-12 17:31N 47°38' W 122°23'0 0.0
2018-May-12 17:00N 47°38' W 122°23'0 0.0
2018-May-12 16:30N 47°38' W 122°23'0 0.0
2018-May-12 16:00N 47°38' W 122°23'0 0.0
2018-May-12 15:30N 47°38' W 122°23'0 0.0
2018-May-12 14:59N 47°38' W 122°23'0 0.0
2018-May-12 14:29N 47°38' W 122°23'0 0.0
2018-May-12 13:59N 47°38' W 122°23'0 0.0
2018-May-12 13:29N 47°38' W 122°23'0 0.9
2018-May-12 13:00N 47°37' W 122°23'2 4.7
2018-May-12 12:31N 47°37' W 122°26'611.5
2018-May-12 12:00N 47°42' W 122°28'714.4
2018-May-12 11:31N 47°50' W 122°28'714.0
2018-May-12 11:01N 47°56' W 122°32'713.9
2018-May-12 10:30N 48°02' W 122°38'813.5
2018-May-12 09:56N 48°08' W 122°43'615.1
2018-May-12 09:30N 48°11' W 122°52'816.2
2018-May-12 09:00N 48°12' W 123°05'917.2
2018-May-12 08:30N 48°11' W 123°18'1011.6
2018-May-12 07:40N 48°16' W 123°29'418.1
2018-May-12 07:25N 48°20' W 123°26'5 0.8
2018-May-12 01:28N 48°25' W 123°24'611.4
2018-May-12 00:59N 48°19' W 123°25'1317.5
2018-May-12 00:13N 48°14' W 123°43'520.1
2018-May-11 23:58N 48°14' W 123°50'919.6
2018-May-11 23:30N 48°16' W 124°03'1020.9
2018-May-11 23:00N 48°20' W 124°18'1021.0
2018-May-11 22:30N 48°25' W 124°32'1020.4
2018-May-11 22:00N 48°29' W 124°46'1121.2
2018-May-11 21:28N 48°29' W 125°04'816.6
2018-May-11 21:00N 48°31' W 125°15'1020.9
2018-May-11 20:30N 48°36' W 125°28'1121.6
2018-May-11 20:00N 48°41' W 125°42'1020.8
2018-May-11 19:30N 48°47' W 125°56'1020.5
2018-May-11 19:00N 48°53' W 126°09'1021.0
2018-May-11 18:30N 48°59' W 126°21'1121.2
2018-May-11 17:59N 49°06' W 126°35'1121.4
2018-May-11 17:29N 49°12' W 126°48'1021.5
2018-May-11 17:00N 49°19' W 127°00'10322.1
2018-May-11 12:20N 50°31' W 128°53'4221.7
2018-May-11 10:24N 51°08' W 129°26'922.0
2018-May-11 10:00N 51°16' W 129°31'1121.9
2018-May-11 09:30N 51°26' W 129°38'12921.9
2018-May-11 03:35N 53°25' W 131°01'221.3
2018-May-11 03:29N 53°28' W 131°01'1021.0
2018-May-11 03:00N 53°38' W 131°01'1221.4
2018-May-11 02:28N 53°49' W 131°02'1021.7
2018-May-11 02:00N 53°59' W 131°02'1121.8
2018-May-11 01:30N 54°10' W 131°02'1121.3
2018-May-11 01:00N 54°21' W 131°04'1221.8
2018-May-11 00:28N 54°30' W 131°16'1121.4
2018-May-10 23:58N 54°39' W 131°27'  

Dump ship's entire track history